Time;durP1;ratioP1;P1;durP2;ratioP2;P2;SDS_P1;SDS_P2;PMS_P1;PMS_P2;Temp;Humidity;BMP_temperature;BMP_pressure;BME280_temperature;BME280_humidity;BME280_pressure;Samples;Min_cycle;Max_cycle;Signal;HPM_P1;HPM_P2
2022/08/08 00:02:32;;;;;;;0.32;0.32;;;17.30;62.00;;;;;;4858884;29;20112;-73
2022/08/08 00:05:12;;;;;;;0.30;0.30;;;17.30;62.10;;;;;;4857277;29;20052;-74
2022/08/08 00:07:49;;;;;;;0.30;0.30;;;17.30;62.20;;;;;;4858759;29;20493;-74
2022/08/08 00:10:34;;;;;;;0.40;0.40;;;17.30;62.30;;;;;;4858446;29;20519;-74
2022/08/08 00:13:08;;;;;;;0.70;0.38;;;17.40;62.50;;;;;;4827196;29;20077;-73
2022/08/08 00:15:40;;;;;;;0.60;0.47;;;17.20;62.50;;;;;;4858609;29;20501;-73
2022/08/08 00:18:21;;;;;;;0.55;0.40;;;17.20;62.50;;;;;;4859014;29;20124;-73
2022/08/08 00:20:55;;;;;;;;;;;17.30;62.70;;;;;;4859029;29;20073;-73
2022/08/08 00:23:34;;;;;;;0.80;0.50;;;17.20;62.70;;;;;;4858391;29;19923;-73
2022/08/08 00:26:02;;;;;;;0.85;0.50;;;17.20;62.70;;;;;;4842831;29;20456;-74
2022/08/08 00:28:35;;;;;;;0.73;0.40;;;17.20;62.80;;;;;;4841854;29;20045;-73
2022/08/08 00:31:06;;;;;;;0.70;0.55;;;17.10;62.90;;;;;;4858731;29;20049;-73
2022/08/08 00:33:34;;;;;;;;;;;17.10;63.00;;;;;;4859210;29;20066;-75
2022/08/08 00:36:22;;;;;;;0.40;0.40;;;17.10;63.00;;;;;;4857919;29;20260;-73
2022/08/08 00:39:04;;;;;;;0.40;0.40;;;17.00;63.10;;;;;;4841695;29;20944;-73
2022/08/08 00:41:54;;;;;;;0.63;0.40;;;17.00;63.10;;;;;;4842924;29;20509;-73
2022/08/08 00:44:51;;;;;;;0.90;0.50;;;17.00;63.40;;;;;;4858757;29;20461;-75
2022/08/08 00:47:45;;;;;;;0.40;0.40;;;17.00;63.40;;;;;;4860455;29;20105;-73
2022/08/08 00:50:45;;;;;;;0.40;0.40;;;17.00;63.60;;;;;;4861605;29;20060;-73
2022/08/08 00:53:48;;;;;;;0.50;0.50;;;16.90;63.70;;;;;;4861593;29;20162;-74
2022/08/08 00:56:45;;;;;;;0.68;0.45;;;16.90;63.90;;;;;;4861155;29;20038;-75
2022/08/08 00:59:46;;;;;;;0.60;0.60;;;16.90;64.00;;;;;;4861196;29;20090;-73
2022/08/08 01:02:46;;;;;;;0.50;0.40;;;16.80;64.00;;;;;;4861438;29;20049;-74
2022/08/08 01:05:46;;;;;;;0.50;0.40;;;16.80;64.10;;;;;;4861630;29;20045;-74
2022/08/08 01:08:46;;;;;;;0.40;0.40;;;16.80;64.30;;;;;;4843926;29;20029;-73
2022/08/08 01:11:46;;;;;;;0.35;0.32;;;16.70;64.30;;;;;;4861089;29;20041;-72
2022/08/08 01:14:47;;;;;;;0.30;0.30;;;16.70;64.50;;;;;;4861143;29;20069;-73
2022/08/08 01:17:41;;;;;;;0.35;0.35;;;16.60;64.50;;;;;;4859304;29;20416;-73
2022/08/08 01:20:38;;;;;;;0.30;0.30;;;16.60;64.60;;;;;;4844484;29;20412;-73
2022/08/08 01:23:37;;;;;;;0.30;0.30;;;16.60;64.90;;;;;;4860849;29;20110;-74
2022/08/08 01:26:33;;;;;;;0.30;0.30;;;16.50;65.10;;;;;;4860869;29;20041;-74
2022/08/08 01:29:32;;;;;;;0.63;0.40;;;16.50;65.10;;;;;;4848972;29;20097;-73
2022/08/08 01:32:28;;;;;;;0.50;0.50;;;16.50;65.30;;;;;;4846783;29;20110;-74
2022/08/08 01:35:28;;;;;;;0.30;0.30;;;16.50;65.40;;;;;;4846919;29;20041;-73
2022/08/08 01:38:12;;;;;;;0.45;0.45;;;16.40;65.40;;;;;;4860707;29;20794;-73
2022/08/08 01:40:52;;;;;;;0.75;0.30;;;16.50;65.60;;;;;;4860842;29;20049;-74
2022/08/08 01:43:31;;;;;;;0.30;0.30;;;16.40;65.60;;;;;;4844396;29;20034;-75
2022/08/08 01:46:11;;;;;;;0.30;0.30;;;16.40;65.90;;;;;;4860711;29;20481;-74
2022/08/08 01:48:55;;;;;;;0.30;0.30;;;16.30;65.70;;;;;;4860791;29;20481;-73
2022/08/08 01:51:50;;;;;;;0.47;0.47;;;16.30;65.80;;;;;;4860796;29;20052;-74
2022/08/08 01:54:38;;;;;;;0.40;0.30;;;16.30;65.80;;;;;;4859293;29;20549;-75
2022/08/08 01:57:30;;;;;;;0.20;0.20;;;16.30;65.90;;;;;;4842194;29;20045;-74
2022/08/08 02:00:13;;;;;;;0.43;0.40;;;16.30;66.10;;;;;;4859703;29;20049;-74
2022/08/08 02:02:59;;;;;;;0.30;0.30;;;16.20;66.20;;;;;;4843450;29;20068;-74
2022/08/08 02:06:00;;;;;;;0.68;0.57;;;16.10;66.30;;;;;;4844811;29;20164;-74
2022/08/08 02:08:45;;;;;;;0.22;0.22;;;16.10;66.50;;;;;;4847049;29;20053;-74
2022/08/08 02:11:41;;;;;;;0.43;0.43;;;16.10;66.70;;;;;;4859979;29;20050;-74
2022/08/08 02:14:28;;;;;;;0.65;0.50;;;15.90;66.70;;;;;;4860411;29;20049;-74
2022/08/08 02:17:10;;;;;;;0.50;0.50;;;15.90;66.80;;;;;;4844183;29;20121;-74
2022/08/08 02:19:45;;;;;;;0.55;0.55;;;16.00;66.90;;;;;;4860464;29;20094;-74
2022/08/08 02:25:19;;;;;;;0.50;0.50;;;16.00;67.00;;;;;;4859489;29;20048;-75
2022/08/08 02:28:05;;;;;;;0.30;0.30;;;15.90;66.90;;;;;;4843313;29;20041;-75
2022/08/08 02:31:10;;;;;;;0.40;0.40;;;16.00;67.00;;;;;;4860554;29;20077;-74
2022/08/08 02:34:00;;;;;;;0.40;0.40;;;15.90;67.00;;;;;;4858755;29;20397;-74
2022/08/08 02:36:39;;;;;;;0.52;0.50;;;15.90;67.00;;;;;;4845303;29;20057;-74
2022/08/08 02:39:26;;;;;;;0.70;0.30;;;16.00;67.20;;;;;;4859818;29;20393;-74
2022/08/08 02:42:17;;;;;;;1.08;0.47;;;15.90;67.30;;;;;;4860095;29;20125;-74
2022/08/08 02:44:57;;;;;;;;;;;15.80;67.40;;;;;;4860303;29;20049;-74
2022/08/08 02:47:59;;;;;;;0.35;0.35;;;15.80;67.30;;;;;;4859987;29;20011;-74
2022/08/08 02:50:57;;;;;;;0.40;0.32;;;15.70;67.40;;;;;;4846541;29;20489;-73
2022/08/08 02:53:55;;;;;;;0.20;0.20;;;15.70;67.50;;;;;;4859792;29;20120;-74
2022/08/08 02:56:50;;;;;;;0.40;0.40;;;15.70;67.60;;;;;;4831927;29;20049;-73
2022/08/08 02:59:50;;;;;;;0.63;0.40;;;15.60;67.70;;;;;;4842937;29;20426;-73
2022/08/08 03:02:48;;;;;;;0.38;0.38;;;15.60;67.80;;;;;;4832484;29;20403;-74
2022/08/08 03:05:39;;;;;;;0.77;0.38;;;15.60;67.90;;;;;;4858897;29;20370;-73
2022/08/08 03:08:39;;;;;;;0.30;0.30;;;15.50;68.00;;;;;;4858572;29;20037;-74
2022/08/08 03:11:39;;;;;;;0.23;0.23;;;15.50;68.20;;;;;;4842794;29;20442;-74
2022/08/08 03:14:40;;;;;;;0.40;0.40;;;15.50;68.20;;;;;;4859470;29;20460;-74
2022/08/08 03:17:30;;;;;;;0.40;0.30;;;15.50;68.30;;;;;;4859343;29;20060;-74
2022/08/08 03:20:05;;;;;;;0.40;0.40;;;15.40;68.50;;;;;;4858299;29;20037;-74
2022/08/08 03:22:32;;;;;;;0.30;0.30;;;15.40;68.50;;;;;;4859336;29;20285;-74
2022/08/08 03:25:01;;;;;;;0.32;0.32;;;15.40;68.60;;;;;;4859348;29;20041;-74
2022/08/08 03:27:38;;;;;;;0.40;0.40;;;15.30;68.70;;;;;;4859507;29;20046;-74
2022/08/08 03:30:08;;;;;;;0.30;0.30;;;15.20;68.80;;;;;;4859216;29;20527;-74
2022/08/08 03:35:17;;;;;;;0.63;0.40;;;15.20;69.00;;;;;;4859129;29;20052;-74
2022/08/08 03:37:45;;;;;;;0.28;0.28;;;15.10;69.10;;;;;;4827624;29;20057;-73
2022/08/08 03:40:11;;;;;;;0.43;0.43;;;15.10;69.20;;;;;;4842582;29;20515;-74
2022/08/08 03:42:37;;;;;;;0.50;0.40;;;15.10;69.40;;;;;;4859017;29;20057;-74
2022/08/08 03:45:21;;;;;;;1.17;0.50;;;15.00;69.40;;;;;;4858774;29;20398;-74
2022/08/08 03:48:06;;;;;;;0.93;0.40;;;15.00;69.60;;;;;;4859121;29;20053;-74
2022/08/08 03:50:35;;;;;;;0.55;0.30;;;15.00;69.60;;;;;;4858702;29;20049;-74
2022/08/08 03:53:06;;;;;;;0.80;0.45;;;15.00;69.60;;;;;;4859410;29;20048;-74
2022/08/08 03:55:31;;;;;;;0.38;0.38;;;15.00;69.70;;;;;;4859345;29;20405;-74
2022/08/08 03:57:58;;;;;;;0.50;0.50;;;15.10;69.80;;;;;;4859089;29;20040;-74
2022/08/08 04:00:25;;;;;;;0.40;0.40;;;14.80;69.60;;;;;;4858727;29;20057;-74
2022/08/08 04:02:58;;;;;;;0.40;0.40;;;14.90;69.80;;;;;;4842571;29;20042;-74
2022/08/08 04:05:26;;;;;;;0.40;0.40;;;14.90;70.00;;;;;;4858833;29;20044;-74
2022/08/08 04:07:52;;;;;;;0.52;0.50;;;14.80;70.00;;;;;;4859393;29;20041;-74
2022/08/08 04:10:17;;;;;;;0.40;0.40;;;14.90;70.10;;;;;;4859480;29;20393;-74
2022/08/08 04:12:43;;;;;;;0.68;0.40;;;14.80;70.10;;;;;;4858795;29;20122;-74
2022/08/08 04:15:10;;;;;;;0.35;0.35;;;14.90;70.10;;;;;;4842335;29;20374;-74
2022/08/08 04:17:35;;;;;;;0.60;0.50;;;14.80;70.10;;;;;;4858837;29;20121;-74
2022/08/08 04:20:02;;;;;;;0.30;0.30;;;14.90;70.20;;;;;;4858735;29;20083;-74
2022/08/08 04:22:29;;;;;;;0.60;0.60;;;14.80;70.20;;;;;;4842082;29;20504;-74
2022/08/08 04:24:59;;;;;;;0.30;0.30;;;14.90;70.30;;;;;;4858371;29;20076;-74
2022/08/08 04:27:25;;;;;;;0.38;0.30;;;14.80;70.30;;;;;;4841638;29;20093;-73
2022/08/08 04:29:51;;;;;;;0.35;0.35;;;14.80;70.40;;;;;;4858805;29;20046;-76
2022/08/08 04:32:17;;;;;;;0.40;0.40;;;14.80;70.40;;;;;;4842131;29;20045;-73
2022/08/08 04:34:43;;;;;;;0.55;0.50;;;14.80;70.40;;;;;;4842067;29;20038;-76
2022/08/08 04:37:10;;;;;;;0.68;0.35;;;14.80;70.50;;;;;;4858617;29;20551;-76
2022/08/08 04:39:35;;;;;;;0.77;0.40;;;14.90;70.50;;;;;;4841704;29;20038;-73
2022/08/08 04:42:01;;;;;;;0.47;0.47;;;14.70;70.40;;;;;;4858415;29;20057;-73
2022/08/08 04:44:27;;;;;;;0.60;0.40;;;14.80;70.60;;;;;;4858252;29;20053;-76
2022/08/08 04:46:54;;;;;;;0.70;0.50;;;14.80;70.70;;;;;;4858902;29;20469;-75
2022/08/08 04:49:19;;;;;;;0.40;0.40;;;14.80;70.80;;;;;;4859093;29;20029;-76
2022/08/08 04:51:45;;;;;;;0.50;0.50;;;14.70;70.80;;;;;;4842063;29;20053;-76
2022/08/08 04:54:11;;;;;;;0.50;0.50;;;14.70;70.80;;;;;;4858847;29;20389;-75
2022/08/08 04:56:37;;;;;;;0.30;0.30;;;14.70;70.80;;;;;;4858379;29;20045;-76
2022/08/08 04:59:03;;;;;;;0.50;0.50;;;14.70;70.90;;;;;;4858716;29;20044;-76
2022/08/08 05:01:30;;;;;;;0.40;0.40;;;14.80;70.90;;;;;;4826451;29;20088;-76
2022/08/08 05:03:55;;;;;;;0.30;0.30;;;14.80;71.00;;;;;;4841684;29;20073;-76
2022/08/08 05:06:21;;;;;;;0.40;0.40;;;14.80;71.00;;;;;;4840828;29;20074;-76
2022/08/08 05:08:47;;;;;;;0.45;0.40;;;14.90;71.00;;;;;;4858072;29;20460;-76
2022/08/08 05:11:13;;;;;;;0.43;0.40;;;14.90;71.00;;;;;;4858190;29;20054;-76
2022/08/08 05:13:40;;;;;;;0.40;0.40;;;14.90;71.00;;;;;;4840853;29;20041;-75
2022/08/08 05:16:06;;;;;;;0.60;0.40;;;14.90;70.90;;;;;;4858851;29;20375;-76
2022/08/08 05:18:32;;;;;;;0.47;0.45;;;15.00;70.80;;;;;;4841610;29;20034;-76
2022/08/08 05:20:59;;;;;;;0.50;0.47;;;15.10;70.70;;;;;;4826289;29;20463;-76
2022/08/08 05:23:25;;;;;;;0.35;0.35;;;15.10;70.70;;;;;;4841561;29;20082;-76
2022/08/08 05:25:51;;;;;;;0.50;0.40;;;15.10;70.50;;;;;;4857834;29;20084;-76
2022/08/08 05:28:17;;;;;;;0.30;0.30;;;15.20;70.60;;;;;;4858334;29;20382;-76
2022/08/08 05:30:43;;;;;;;0.40;0.40;;;15.20;70.50;;;;;;4859498;29;20073;-76
2022/08/08 05:33:09;;;;;;;0.45;0.35;;;15.30;70.50;;;;;;4861183;29;20092;-76
2022/08/08 05:35:35;;;;;;;0.40;0.40;;;15.30;70.50;;;;;;4859574;29;20037;-75
2022/08/08 05:38:05;;;;;;;0.47;0.30;;;15.40;70.50;;;;;;4861238;29;20069;-75
2022/08/08 05:40:33;;;;;;;0.82;0.40;;;15.50;70.50;;;;;;4844705;29;20497;-75
2022/08/08 05:43:05;;;;;;;0.25;0.25;;;15.50;70.40;;;;;;4844263;29;20120;-75
2022/08/08 05:45:35;;;;;;;0.40;0.40;;;15.60;70.40;;;;;;4860863;29;20089;-75
2022/08/08 05:48:02;;;;;;;0.73;0.40;;;15.60;70.20;;;;;;4844255;29;20132;-75
2022/08/08 05:50:29;;;;;;;0.73;0.50;;;15.70;70.10;;;;;;4844319;29;20041;-75
2022/08/08 05:52:56;;;;;;;0.50;0.40;;;15.90;70.00;;;;;;4860956;29;20037;-75
2022/08/08 05:55:21;;;;;;;0.43;0.40;;;15.80;69.80;;;;;;4860542;29;20125;-75
2022/08/08 05:57:51;;;;;;;0.40;0.40;;;16.00;69.80;;;;;;4860874;29;20113;-75
2022/08/08 06:00:17;;;;;;;0.32;0.32;;;16.10;69.80;;;;;;4844047;29;20894;-75
2022/08/08 06:05:32;;;;;;;0.40;0.40;;;16.20;69.60;;;;;;4859377;29;20109;-75
2022/08/08 06:08:01;;;;;;;0.50;0.40;;;16.20;69.40;;;;;;4860959;29;20037;-75
2022/08/08 06:10:30;;;;;;;0.35;0.35;;;16.30;69.30;;;;;;4844186;29;20048;-75
2022/08/08 06:12:56;;;;;;;0.40;0.40;;;16.40;69.30;;;;;;4857843;29;20052;-75
2022/08/08 06:15:22;;;;;;;0.40;0.40;;;16.60;69.20;;;;;;4860474;29;20053;-75
2022/08/08 06:17:50;;;;;;;0.28;0.28;;;16.60;69.10;;;;;;4843157;29;20494;-75
2022/08/08 06:20:16;;;;;;;0.50;0.47;;;16.70;69.00;;;;;;4860409;29;20042;-75
2022/08/08 06:22:42;;;;;;;0.60;0.40;;;16.70;68.90;;;;;;4842370;29;20052;-75
2022/08/08 06:25:08;;;;;;;0.30;0.30;;;16.80;68.80;;;;;;4860614;29;20050;-75
2022/08/08 06:27:45;;;;;;;0.30;0.30;;;16.80;68.60;;;;;;4860673;29;20064;-75
2022/08/08 06:30:13;;;;;;;1.63;0.40;;;16.90;68.50;;;;;;4858357;29;20041;-74
2022/08/08 06:32:44;;;;;;;0.65;0.30;;;17.00;68.40;;;;;;4842997;29;20041;-74
2022/08/08 06:35:12;;;;;;;0.30;0.30;;;17.10;69.00;;;;;;4812977;29;20033;-75
2022/08/08 06:37:45;;;;;;;0.60;0.38;;;17.20;68.40;;;;;;4860452;29;20045;-74
2022/08/08 06:40:14;;;;;;;0.30;0.30;;;17.20;68.30;;;;;;4860303;29;20038;-75
2022/08/08 06:43:00;;;;;;;0.30;0.30;;;17.20;68.20;;;;;;4828350;29;20052;-74
2022/08/08 06:45:27;;;;;;;0.35;0.30;;;17.30;68.10;;;;;;4830502;29;20069;-74
2022/08/08 06:47:53;;;;;;;0.73;0.55;;;17.40;68.00;;;;;;4828078;29;20054;-75
2022/08/08 06:50:18;;;;;;;0.32;0.28;;;17.40;67.90;;;;;;4859962;29;20049;-74
2022/08/08 06:52:45;;;;;;;0.32;0.32;;;17.50;67.90;;;;;;4859815;29;20117;-75
2022/08/08 06:55:10;;;;;;;0.60;0.50;;;17.60;67.90;;;;;;4843773;29;20046;-75
2022/08/08 06:57:36;;;;;;;0.40;0.40;;;17.60;67.70;;;;;;4842864;29;20030;-75
2022/08/08 07:00:05;;;;;;;0.20;0.20;;;17.70;67.60;;;;;;4859779;29;20041;-75
2022/08/08 07:02:33;;;;;;;0.47;0.40;;;17.80;67.50;;;;;;4859983;29;20101;-75
2022/08/08 07:05:08;;;;;;;0.30;0.30;;;17.80;68.10;;;;;;4842829;29;20077;-74
2022/08/08 07:08:13;;;;;;;0.40;0.40;;;17.90;67.40;;;;;;4842924;29;20053;-74
2022/08/08 07:10:48;;;;;;;0.43;0.40;;;18.00;67.40;;;;;;4847192;29;20169;-74
2022/08/08 07:13:16;;;;;;;0.40;0.40;;;18.00;67.20;;;;;;4859431;29;20076;-74
2022/08/08 07:15:50;;;;;;;0.20;0.20;;;18.10;67.20;;;;;;4860121;29;20178;-75
2022/08/08 07:18:30;;;;;;;0.50;0.50;;;18.20;67.20;;;;;;4857756;29;20044;-74
2022/08/08 07:21:03;;;;;;;0.73;0.40;;;18.30;67.10;;;;;;4858626;29;20050;-74
2022/08/08 07:23:37;;;;;;;0.60;0.30;;;18.30;67.00;;;;;;4842883;29;20080;-75
2022/08/08 07:26:03;;;;;;;0.30;0.30;;;18.40;66.90;;;;;;4858461;29;20049;-73
2022/08/08 07:28:29;;;;;;;0.45;0.30;;;18.50;66.80;;;;;;4842685;29;20572;-72
2022/08/08 07:30:57;;;;;;;0.40;0.40;;;18.70;66.70;;;;;;4859103;29;20050;-73
2022/08/08 07:33:24;;;;;;;0.45;0.40;;;18.70;66.50;;;;;;4843154;29;20449;-73
2022/08/08 07:35:51;;;;;;;0.70;0.40;;;18.80;66.40;;;;;;4842419;29;20133;-73
2022/08/08 07:38:17;;;;;;;0.50;0.40;;;18.90;66.20;;;;;;4859145;29;20065;-73
2022/08/08 07:40:44;;;;;;;0.40;0.40;;;19.00;66.00;;;;;;4859472;29;20053;-74
2022/08/08 07:43:11;;;;;;;0.75;0.45;;;19.10;65.90;;;;;;4842390;29;20041;-74
2022/08/08 07:45:39;;;;;;;0.57;0.40;;;19.30;65.80;;;;;;4859835;29;20065;-75
2022/08/08 07:48:05;;;;;;;1.42;0.47;;;19.30;65.60;;;;;;4857688;29;20037;-74
2022/08/08 07:50:33;;;;;;;0.30;0.30;;;19.40;65.50;;;;;;4859487;29;20145;-75
2022/08/08 07:53:04;;;;;;;0.77;0.32;;;19.50;65.30;;;;;;4858731;29;20485;-74
2022/08/08 07:55:30;;;;;;;0.40;0.40;;;19.70;65.10;;;;;;4858954;29;20045;-75
2022/08/08 07:58:20;;;;;;;0.30;0.30;;;19.80;64.80;;;;;;4859249;29;20041;-75
2022/08/08 08:00:50;;;;;;;0.30;0.30;;;20.00;64.60;;;;;;4845593;29;20497;-75
2022/08/08 08:03:29;;;;;;;0.30;0.30;;;20.00;64.40;;;;;;4858796;29;20041;-75
2022/08/08 08:05:58;;;;;;;0.65;0.47;;;20.20;64.20;;;;;;4844187;29;20282;-75
2022/08/08 08:08:40;;;;;;;0.40;0.40;;;20.30;64.00;;;;;;4842810;29;20500;-75
2022/08/08 08:11:11;;;;;;;0.38;0.38;;;20.40;63.70;;;;;;4842688;29;20071;-75
2022/08/08 08:13:58;;;;;;;0.75;0.30;;;20.60;63.50;;;;;;4842535;29;20045;-74
2022/08/08 08:16:28;;;;;;;0.30;0.30;;;20.80;63.20;;;;;;4859155;29;20124;-75
2022/08/08 08:18:58;;;;;;;0.30;0.30;;;21.00;63.10;;;;;;4858971;29;20037;-75
2022/08/08 08:21:28;;;;;;;0.73;0.20;;;21.10;62.80;;;;;;4842404;29;20169;-74
2022/08/08 08:23:55;;;;;;;0.30;0.30;;;21.30;62.70;;;;;;4840464;29;20065;-75
2022/08/08 08:26:21;;;;;;;0.55;0.40;;;21.50;62.40;;;;;;4841928;29;20229;-75
2022/08/08 08:28:48;;;;;;;0.28;0.20;;;21.60;62.20;;;;;;4858457;29;20069;-75
2022/08/08 08:31:14;;;;;;;0.57;0.45;;;21.70;62.00;;;;;;4858544;29;20190;-75
2022/08/08 08:33:40;;;;;;;0.68;0.40;;;21.90;61.90;;;;;;4858991;29;20034;-75
2022/08/08 08:36:08;;;;;;;0.50;0.40;;;22.00;61.80;;;;;;4858491;29;20049;-75
2022/08/08 08:38:34;;;;;;;0.30;0.30;;;22.20;61.80;;;;;;4858615;29;20434;-75
2022/08/08 08:41:01;;;;;;;1.48;0.50;;;22.20;61.60;;;;;;4826888;29;20146;-75
2022/08/08 08:43:27;;;;;;;0.30;0.30;;;22.30;61.50;;;;;;4858346;29;20037;-73
2022/08/08 08:45:54;;;;;;;0.77;0.40;;;22.50;61.40;;;;;;4858588;29;20050;-73
2022/08/08 08:48:21;;;;;;;0.82;0.45;;;22.50;61.30;;;;;;4858777;29;20050;-75
2022/08/08 08:50:51;;;;;;;0.40;0.40;;;22.60;61.10;;;;;;4841654;29;20102;-75
2022/08/08 08:53:17;;;;;;;0.30;0.30;;;22.70;60.90;;;;;;4858501;29;20065;-75
2022/08/08 08:55:44;;;;;;;0.40;0.40;;;22.80;60.90;;;;;;4858525;29;20497;-75
2022/08/08 08:58:31;;;;;;;0.40;0.40;;;22.90;60.80;;;;;;4858117;29;20046;-76
2022/08/08 09:01:01;;;;;;;0.47;0.30;;;23.10;60.60;;;;;;4856460;29;20044;-77
2022/08/08 09:03:28;;;;;;;0.35;0.30;;;23.30;60.20;;;;;;4839718;29;20038;-77
2022/08/08 09:05:55;;;;;;;0.45;0.40;;;23.50;60.00;;;;;;4860099;29;20041;-76
2022/08/08 09:08:24;;;;;;;0.30;0.30;;;23.60;59.80;;;;;;4861273;29;20101;-75
2022/08/08 09:10:50;;;;;;;0.38;0.30;;;23.60;59.60;;;;;;4861724;29;20049;-74
2022/08/08 09:13:17;;;;;;;0.10;0.10;;;23.50;59.60;;;;;;4843757;29;20462;-75
2022/08/08 09:15:43;;;;;;;0.75;0.30;;;23.30;60.00;;;;;;4861867;29;20026;-75
2022/08/08 09:18:10;;;;;;;0.47;0.30;;;23.20;60.40;;;;;;4861382;29;20047;-76
2022/08/08 09:20:36;;;;;;;0.20;0.20;;;23.00;60.70;;;;;;4844557;29;20046;-75
2022/08/08 09:23:03;;;;;;;0.35;0.30;;;22.80;61.00;;;;;;4861894;29;20038;-75
2022/08/08 09:25:31;;;;;;;0.68;0.30;;;22.80;61.20;;;;;;4845521;29;20045;-75
2022/08/08 09:27:58;;;;;;;0.20;0.20;;;22.70;61.40;;;;;;4861472;29;20045;-74
2022/08/08 09:30:25;;;;;;;0.20;0.20;;;22.80;61.50;;;;;;4861282;29;20053;-75
2022/08/08 09:32:53;;;;;;;0.40;0.38;;;23.10;60.80;;;;;;4829309;29;20408;-76
2022/08/08 09:35:24;;;;;;;0.57;0.30;;;23.50;60.00;;;;;;4844581;29;20037;-76
2022/08/08 09:37:53;;;;;;;0.88;0.30;;;23.70;59.20;;;;;;4845663;29;20029;-76
2022/08/08 09:53:51;;;;;;;0.20;0.20;;;23.90;58.50;;;;;;4836632;29;20137;-76
2022/08/08 09:57:10;;;;;;;0.20;0.20;;;23.90;58.50;;;;;;4824208;29;20136;-76
2022/08/08 10:14:45;;;;;;;0.22;0.20;;;23.90;58.60;;;;;;4712077;30;20049;-76
2022/08/08 10:17:12;;;;;;;0.20;0.20;;;23.80;58.60;;;;;;4669987;30;20072;-76
2022/08/08 10:24:02;;;;;;;0.20;0.20;;;23.70;58.60;;;;;;4644267;30;20050;-76
2022/08/08 10:30:00;;;;;;;;;;;23.70;58.60;;;;;;4612305;31;20118;-76
2022/08/08 11:23:13;;;;;;;1.27;0.40;;;24.90;55.80;;;;;;4855666;29;20288;-76
2022/08/08 11:51:15;;;;;;;0.52;0.50;;;24.80;56.00;;;;;;4782954;29;20185;-77
2022/08/08 11:53:46;;;;;;;0.57;0.30;;;24.90;55.90;;;;;;4782759;29;20507;-75
2022/08/08 11:56:50;;;;;;;0.22;0.22;;;25.00;55.60;;;;;;4781885;29;20522;-75
2022/08/08 11:59:18;;;;;;;0.25;0.25;;;25.20;55.50;;;;;;4781112;29;20441;-75
2022/08/08 12:05:58;;;;;;;0.47;0.40;;;25.20;54.90;;;;;;4766157;30;20106;-77
2022/08/08 12:12:00;;;;;;;1.05;0.40;;;25.00;55.40;;;;;;4765463;29;20075;-77
2022/08/08 12:15:08;;;;;;;0.28;0.28;;;24.90;55.60;;;;;;4811279;29;20487;-78
2022/08/08 12:17:36;;;;;;;0.30;0.30;;;24.90;55.60;;;;;;4788348;29;20042;-77
2022/08/08 12:20:12;;;;;;;0.20;0.20;;;24.90;55.60;;;;;;4814431;29;20441;-78
2022/08/08 12:27:12;;;;;;;0.20;0.20;;;24.60;55.50;;;;;;4819874;29;20088;-77
2022/08/08 12:33:53;;;;;;;0.20;0.20;;;24.90;55.20;;;;;;4782709;29;20063;-77
2022/08/08 12:36:21;;;;;;;0.80;0.35;;;25.10;54.70;;;;;;4814238;29;20061;-77
2022/08/08 12:43:12;;;;;;;0.45;0.30;;;25.30;53.90;;;;;;4822490;29;20057;-75
2022/08/08 12:45:42;;;;;;;0.47;0.30;;;25.20;54.00;;;;;;4783895;29;20531;-76
2022/08/08 12:48:24;;;;;;;0.40;0.30;;;25.10;54.10;;;;;;4820289;29;20548;-77
2022/08/08 12:50:53;;;;;;;0.25;0.25;;;25.10;54.30;;;;;;4823103;29;20054;-76
2022/08/08 12:53:22;;;;;;;0.25;0.25;;;25.00;54.30;;;;;;4822758;29;20039;-76
2022/08/08 12:55:58;;;;;;;0.30;0.30;;;24.90;54.30;;;;;;4822441;29;20547;-78
2022/08/08 12:58:26;;;;;;;0.25;0.22;;;24.80;54.30;;;;;;4821552;29;20062;-78
2022/08/08 13:00:51;;;;;;;0.45;0.35;;;24.90;54.40;;;;;;4822793;29;20074;-79
2022/08/08 13:03:33;;;;;;;0.20;0.20;;;24.90;54.30;;;;;;4822528;29;20073;-78
2022/08/08 13:06:05;;;;;;;0.90;0.40;;;24.80;54.20;;;;;;4822999;29;20077;-77
2022/08/08 13:08:45;;;;;;;0.30;0.30;;;24.90;54.20;;;;;;4847482;29;20449;-79
2022/08/08 13:11:25;;;;;;;0.38;0.38;;;25.00;53.70;;;;;;4844664;29;20086;-78
2022/08/08 13:14:13;;;;;;;0.30;0.30;;;25.20;53.40;;;;;;4861418;29;20033;-77
2022/08/08 13:16:39;;;;;;;0.20;0.20;;;25.30;53.20;;;;;;4861952;29;20062;-77
2022/08/08 13:19:07;;;;;;;0.10;0.10;;;25.30;53.10;;;;;;4861592;29;20042;-76
2022/08/08 13:21:45;;;;;;;0.20;0.20;;;25.30;53.10;;;;;;4861504;29;20045;-77
2022/08/08 13:24:12;;;;;;;0.15;0.15;;;25.30;53.10;;;;;;4861108;29;20122;-76
2022/08/08 13:26:38;;;;;;;0.20;0.20;;;25.20;53.00;;;;;;4861537;29;20553;-75
2022/08/08 13:29:12;;;;;;;0.52;0.30;;;25.20;53.10;;;;;;4861355;29;20045;-76
2022/08/08 13:31:47;;;;;;;0.30;0.25;;;25.30;53.10;;;;;;4861370;29;20078;-78
2022/08/08 13:34:21;;;;;;;0.30;0.30;;;25.30;52.90;;;;;;4829286;29;20029;-77
2022/08/08 13:36:49;;;;;;;0.30;0.30;;;25.30;52.70;;;;;;4844472;29;20397;-77
2022/08/08 13:39:15;;;;;;;0.30;0.30;;;25.40;53.20;;;;;;4844865;29;20034;-76
2022/08/08 13:41:43;;;;;;;0.30;0.30;;;25.30;52.50;;;;;;4861395;29;20050;-76
2022/08/08 13:44:09;;;;;;;0.60;0.30;;;25.30;52.60;;;;;;4861358;29;20046;-78
2022/08/08 13:46:35;;;;;;;0.80;0.30;;;25.40;52.60;;;;;;4844729;29;20513;-77
2022/08/08 13:49:02;;;;;;;0.52;0.28;;;25.30;52.50;;;;;;4844384;29;20037;-77
2022/08/08 13:51:28;;;;;;;0.22;0.22;;;25.30;52.50;;;;;;4860378;29;20049;-77
2022/08/08 13:53:55;;;;;;;0.68;0.30;;;25.40;52.60;;;;;;4860823;29;20034;-76
2022/08/08 13:56:31;;;;;;;0.20;0.20;;;25.40;52.60;;;;;;4860843;29;20128;-76
2022/08/08 13:58:57;;;;;;;0.25;0.20;;;25.30;52.40;;;;;;4861193;29;20503;-76
2022/08/08 14:01:27;;;;;;;0.35;0.30;;;25.20;52.50;;;;;;4860913;29;20037;-77
2022/08/08 14:03:55;;;;;;;0.68;0.40;;;25.20;52.50;;;;;;4844073;29;20448;-77
2022/08/08 14:06:22;;;;;;;0.20;0.20;;;25.10;52.50;;;;;;4861069;29;20033;-77
2022/08/08 14:08:49;;;;;;;0.20;0.20;;;25.10;52.50;;;;;;4860512;29;20042;-77
2022/08/08 14:11:19;;;;;;;0.52;0.40;;;25.10;52.40;;;;;;4861094;29;20060;-77
2022/08/08 14:13:46;;;;;;;0.20;0.20;;;25.20;52.50;;;;;;4861199;29;20392;-77
2022/08/08 14:16:12;;;;;;;0.52;0.40;;;25.10;52.20;;;;;;4843551;29;20079;-77
2022/08/08 14:18:56;;;;;;;0.50;0.30;;;25.30;52.20;;;;;;4860492;29;20056;-78
2022/08/08 14:21:38;;;;;;;0.82;0.45;;;25.40;52.00;;;;;;4860453;29;20121;-75
2022/08/08 14:24:05;;;;;;;0.20;0.20;;;25.40;51.90;;;;;;4843698;29;20471;-75
2022/08/08 14:26:31;;;;;;;0.63;0.30;;;25.40;51.70;;;;;;4829269;29;20418;-75
2022/08/08 14:28:58;;;;;;;0.10;0.10;;;25.50;51.60;;;;;;4844010;29;20040;-77
2022/08/08 14:31:24;;;;;;;0.20;0.20;;;25.60;51.50;;;;;;4860553;29;20454;-77
2022/08/08 14:33:53;;;;;;;0.28;0.20;;;25.60;51.40;;;;;;4843479;29;20112;-75
2022/08/08 14:36:39;;;;;;;0.20;0.20;;;25.50;51.40;;;;;;4860057;29;20049;-74
2022/08/08 14:39:05;;;;;;;0.30;0.20;;;25.50;51.50;;;;;;4860120;29;20038;-74
2022/08/08 14:41:41;;;;;;;0.20;0.20;;;25.50;51.70;;;;;;4860222;29;20043;-76
2022/08/08 14:44:08;;;;;;;0.20;0.20;;;25.40;51.70;;;;;;4860214;29;20046;-75
2022/08/08 14:46:34;;;;;;;0.30;0.30;;;25.30;51.80;;;;;;4860660;29;20106;-75
2022/08/08 14:49:08;;;;;;;0.20;0.20;;;25.30;51.90;;;;;;4860514;29;20112;-76
2022/08/08 14:51:40;;;;;;;0.30;0.30;;;25.30;52.00;;;;;;4859863;29;20397;-78
2022/08/08 14:54:07;;;;;;;0.75;0.35;;;25.20;52.00;;;;;;4860235;29;20512;-77
2022/08/08 14:56:34;;;;;;;0.30;0.30;;;25.10;51.90;;;;;;4860409;29;20038;-77
2022/08/08 14:59:00;;;;;;;0.30;0.30;;;25.10;51.90;;;;;;4859959;29;20105;-77
2022/08/08 15:01:30;;;;;;;0.32;0.32;;;25.10;51.90;;;;;;4860431;29;20075;-76
2022/08/08 15:06:42;;;;;;;0.20;0.20;;;25.20;52.00;;;;;;4833211;29;20053;-76
2022/08/08 15:09:08;;;;;;;0.30;0.30;;;25.20;51.90;;;;;;4860018;29;20041;-76
2022/08/08 15:11:34;;;;;;;0.32;0.22;;;25.20;51.90;;;;;;4828010;29;20045;-77
2022/08/08 15:13:59;;;;;;;0.52;0.40;;;25.10;51.90;;;;;;4859735;29;20052;-77
2022/08/08 15:16:25;;;;;;;0.20;0.20;;;25.10;51.80;;;;;;4859713;29;20034;-77
2022/08/08 15:18:51;;;;;;;0.30;0.30;;;25.30;51.80;;;;;;4860224;29;20034;-77
2022/08/08 15:21:17;;;;;;;0.30;0.30;;;25.20;51.60;;;;;;4859562;29;20508;-76
2022/08/08 15:23:43;;;;;;;0.20;0.20;;;25.30;51.50;;;;;;4859829;29;20041;-76
2022/08/08 15:26:09;;;;;;;0.38;0.30;;;25.20;51.60;;;;;;4859902;29;20042;-77
2022/08/08 15:28:35;;;;;;;0.30;0.30;;;25.10;51.80;;;;;;4860304;29;20549;-77
2022/08/08 15:31:00;;;;;;;0.43;0.30;;;25.00;52.10;;;;;;4858895;29;20060;-81
2022/08/08 15:33:31;;;;;;;0.65;0.30;;;24.80;52.50;;;;;;4830450;29;20042;-80
2022/08/08 15:35:56;;;;;;;0.65;0.30;;;24.70;52.80;;;;;;4863366;29;20037;-81
2022/08/08 15:38:25;;;;;;;0.40;0.40;;;24.50;53.00;;;;;;4861175;29;20101;-80
2022/08/08 15:40:51;;;;;;;0.25;0.25;;;24.40;53.20;;;;;;4844304;29;20421;-81
2022/08/08 15:43:17;;;;;;;0.75;0.40;;;24.40;53.30;;;;;;4861585;29;20042;-79
2022/08/08 15:45:47;;;;;;;0.30;0.30;;;24.40;53.40;;;;;;4863859;29;20128;-79
2022/08/08 15:48:14;;;;;;;0.30;0.30;;;24.20;54.10;;;;;;4862883;29;20042;-78